sensor_id;sensor_type;location;lat;lon;timestamp;P1;durP1;ratioP1;P2;durP2;ratioP2
37645;SDS011;23489;49.600;6.138;2023-02-13T00:02:12;22.75;;;12.05;;
37645;SDS011;23489;49.600;6.138;2023-02-13T00:04:38;27.02;;;12.02;;
37645;SDS011;23489;49.600;6.138;2023-02-13T00:07:03;23.85;;;11.73;;
37645;SDS011;23489;49.600;6.138;2023-02-13T00:09:29;23.05;;;12.15;;
37645;SDS011;23489;49.600;6.138;2023-02-13T00:11:55;26.80;;;12.32;;
37645;SDS011;23489;49.600;6.138;2023-02-13T00:14:20;20.83;;;11.15;;
37645;SDS011;23489;49.600;6.138;2023-02-13T00:16:46;20.33;;;11.35;;
37645;SDS011;23489;49.600;6.138;2023-02-13T00:19:11;22.95;;;11.73;;
37645;SDS011;23489;49.600;6.138;2023-02-13T00:21:37;25.23;;;10.98;;
37645;SDS011;23489;49.600;6.138;2023-02-13T00:24:03;21.10;;;10.73;;
37645;SDS011;23489;49.600;6.138;2023-02-13T00:26:29;20.23;;;10.95;;
37645;SDS011;23489;49.600;6.138;2023-02-13T00:28:55;20.40;;;11.00;;
37645;SDS011;23489;49.600;6.138;2023-02-13T00:31:23;21.75;;;11.18;;
37645;SDS011;23489;49.600;6.138;2023-02-13T00:33:48;24.10;;;11.25;;
37645;SDS011;23489;49.600;6.138;2023-02-13T00:36:15;23.60;;;12.25;;
37645;SDS011;23489;49.600;6.138;2023-02-13T00:38:43;22.20;;;10.32;;
37645;SDS011;23489;49.600;6.138;2023-02-13T00:41:10;22.42;;;11.15;;
37645;SDS011;23489;49.600;6.138;2023-02-13T00:43:37;22.08;;;10.52;;
37645;SDS011;23489;49.600;6.138;2023-02-13T00:46:03;25.00;;;11.80;;
37645;SDS011;23489;49.600;6.138;2023-02-13T00:48:30;21.07;;;11.20;;
37645;SDS011;23489;49.600;6.138;2023-02-13T00:50:57;23.23;;;10.90;;
37645;SDS011;23489;49.600;6.138;2023-02-13T00:53:23;20.90;;;11.30;;
37645;SDS011;23489;49.600;6.138;2023-02-13T00:55:50;23.33;;;11.60;;
37645;SDS011;23489;49.600;6.138;2023-02-13T00:58:16;26.87;;;11.93;;
37645;SDS011;23489;49.600;6.138;2023-02-13T01:00:43;21.95;;;11.57;;
37645;SDS011;23489;49.600;6.138;2023-02-13T01:03:10;22.57;;;11.53;;
37645;SDS011;23489;49.600;6.138;2023-02-13T01:05:36;20.80;;;11.30;;
37645;SDS011;23489;49.600;6.138;2023-02-13T01:08:01;23.85;;;11.98;;
37645;SDS011;23489;49.600;6.138;2023-02-13T01:10:27;23.77;;;10.70;;
37645;SDS011;23489;49.600;6.138;2023-02-13T01:12:53;22.03;;;11.53;;
37645;SDS011;23489;49.600;6.138;2023-02-13T01:15:18;21.08;;;10.90;;
37645;SDS011;23489;49.600;6.138;2023-02-13T01:17:44;21.90;;;10.77;;
37645;SDS011;23489;49.600;6.138;2023-02-13T01:20:11;21.17;;;11.07;;
37645;SDS011;23489;49.600;6.138;2023-02-13T01:22:37;21.25;;;9.18;;
37645;SDS011;23489;49.600;6.138;2023-02-13T01:25:04;18.80;;;10.43;;
37645;SDS011;23489;49.600;6.138;2023-02-13T01:27:30;17.07;;;9.87;;
37645;SDS011;23489;49.600;6.138;2023-02-13T01:29:56;21.60;;;11.23;;
37645;SDS011;23489;49.600;6.138;2023-02-13T01:32:22;22.73;;;11.97;;
37645;SDS011;23489;49.600;6.138;2023-02-13T01:34:48;22.47;;;11.67;;
37645;SDS011;23489;49.600;6.138;2023-02-13T01:37:14;25.20;;;12.00;;
37645;SDS011;23489;49.600;6.138;2023-02-13T01:39:40;23.03;;;12.40;;
37645;SDS011;23489;49.600;6.138;2023-02-13T01:42:12;22.13;;;11.33;;
37645;SDS011;23489;49.600;6.138;2023-02-13T01:44:49;26.43;;;12.17;;
37645;SDS011;23489;49.600;6.138;2023-02-13T01:47:21;26.90;;;12.70;;
37645;SDS011;23489;49.600;6.138;2023-02-13T01:50:02;21.13;;;11.23;;
37645;SDS011;23489;49.600;6.138;2023-02-13T01:52:39;24.20;;;12.10;;
37645;SDS011;23489;49.600;6.138;2023-02-13T01:55:09;23.63;;;10.97;;
37645;SDS011;23489;49.600;6.138;2023-02-13T01:57:36;22.37;;;11.33;;
37645;SDS011;23489;49.600;6.138;2023-02-13T02:00:11;23.63;;;12.27;;
37645;SDS011;23489;49.600;6.138;2023-02-13T02:02:47;25.40;;;11.80;;
37645;SDS011;23489;49.600;6.138;2023-02-13T02:05:21;20.93;;;10.63;;
37645;SDS011;23489;49.600;6.138;2023-02-13T02:07:50;21.77;;;10.83;;
37645;SDS011;23489;49.600;6.138;2023-02-13T02:10:21;20.23;;;10.73;;
37645;SDS011;23489;49.600;6.138;2023-02-13T02:15:17;22.87;;;10.63;;
37645;SDS011;23489;49.600;6.138;2023-02-13T02:17:43;22.60;;;10.67;;
37645;SDS011;23489;49.600;6.138;2023-02-13T02:31:40;21.20;;;10.77;;
37645;SDS011;23489;49.600;6.138;2023-02-13T02:45:23;17.60;;;9.97;;
37645;SDS011;23489;49.600;6.138;2023-02-13T02:51:03;18.40;;;9.37;;
37645;SDS011;23489;49.600;6.138;2023-02-13T02:53:36;15.77;;;8.43;;
37645;SDS011;23489;49.600;6.138;2023-02-13T02:56:25;14.20;;;8.00;;
37645;SDS011;23489;49.600;6.138;2023-02-13T02:59:00;20.30;;;9.23;;
37645;SDS011;23489;49.600;6.138;2023-02-13T03:01:49;16.30;;;8.77;;
37645;SDS011;23489;49.600;6.138;2023-02-13T03:04:40;18.03;;;9.40;;
37645;SDS011;23489;49.600;6.138;2023-02-13T03:07:27;20.37;;;10.77;;
37645;SDS011;23489;49.600;6.138;2023-02-13T03:09:55;17.67;;;10.10;;
37645;SDS011;23489;49.600;6.138;2023-02-13T03:12:43;15.97;;;9.47;;
37645;SDS011;23489;49.600;6.138;2023-02-13T03:15:46;18.60;;;10.50;;
37645;SDS011;23489;49.600;6.138;2023-02-13T03:18:40;16.10;;;9.60;;
37645;SDS011;23489;49.600;6.138;2023-02-13T03:21:33;18.17;;;10.10;;
37645;SDS011;23489;49.600;6.138;2023-02-13T03:24:27;16.55;;;9.20;;
37645;SDS011;23489;49.600;6.138;2023-02-13T03:27:35;21.00;;;10.83;;
37645;SDS011;23489;49.600;6.138;2023-02-13T03:39:05;16.60;;;9.97;;
37645;SDS011;23489;49.600;6.138;2023-02-13T03:41:39;21.77;;;11.33;;
37645;SDS011;23489;49.600;6.138;2023-02-13T03:46:44;20.97;;;10.93;;
37645;SDS011;23489;49.600;6.138;2023-02-13T03:49:16;18.97;;;11.13;;
37645;SDS011;23489;49.600;6.138;2023-02-13T03:52:12;17.53;;;9.23;;
37645;SDS011;23489;49.600;6.138;2023-02-13T03:54:47;17.10;;;8.93;;
37645;SDS011;23489;49.600;6.138;2023-02-13T03:57:39;17.63;;;9.50;;
37645;SDS011;23489;49.600;6.138;2023-02-13T04:00:27;18.40;;;9.83;;
37645;SDS011;23489;49.600;6.138;2023-02-13T04:05:48;22.63;;;10.40;;
37645;SDS011;23489;49.600;6.138;2023-02-13T04:08:17;21.77;;;10.00;;
37645;SDS011;23489;49.600;6.138;2023-02-13T04:10:49;18.60;;;9.77;;
37645;SDS011;23489;49.600;6.138;2023-02-13T04:13:34;22.03;;;9.93;;
37645;SDS011;23489;49.600;6.138;2023-02-13T04:18:34;22.17;;;9.80;;
37645;SDS011;23489;49.600;6.138;2023-02-13T04:21:02;20.33;;;10.07;;
37645;SDS011;23489;49.600;6.138;2023-02-13T04:23:29;19.13;;;9.93;;
37645;SDS011;23489;49.600;6.138;2023-02-13T04:25:55;21.80;;;10.43;;
37645;SDS011;23489;49.600;6.138;2023-02-13T04:28:21;18.67;;;9.33;;
37645;SDS011;23489;49.600;6.138;2023-02-13T04:30:47;21.07;;;11.03;;
37645;SDS011;23489;49.600;6.138;2023-02-13T04:33:14;21.13;;;10.40;;
37645;SDS011;23489;49.600;6.138;2023-02-13T04:35:39;20.73;;;10.33;;
37645;SDS011;23489;49.600;6.138;2023-02-13T04:38:05;21.30;;;10.83;;
37645;SDS011;23489;49.600;6.138;2023-02-13T04:40:31;19.83;;;10.17;;
37645;SDS011;23489;49.600;6.138;2023-02-13T04:42:57;22.27;;;10.87;;
37645;SDS011;23489;49.600;6.138;2023-02-13T04:45:23;24.73;;;11.70;;
37645;SDS011;23489;49.600;6.138;2023-02-13T04:47:49;22.80;;;11.03;;
37645;SDS011;23489;49.600;6.138;2023-02-13T04:50:16;23.93;;;10.97;;
37645;SDS011;23489;49.600;6.138;2023-02-13T04:52:42;23.13;;;11.30;;
37645;SDS011;23489;49.600;6.138;2023-02-13T04:55:08;21.73;;;10.93;;
37645;SDS011;23489;49.600;6.138;2023-02-13T04:57:33;21.97;;;10.73;;
37645;SDS011;23489;49.600;6.138;2023-02-13T04:59:59;21.97;;;11.13;;
37645;SDS011;23489;49.600;6.138;2023-02-13T05:02:24;23.63;;;10.63;;
37645;SDS011;23489;49.600;6.138;2023-02-13T05:04:50;24.17;;;10.90;;
37645;SDS011;23489;49.600;6.138;2023-02-13T05:07:16;22.27;;;10.90;;
37645;SDS011;23489;49.600;6.138;2023-02-13T05:09:41;17.77;;;9.67;;
37645;SDS011;23489;49.600;6.138;2023-02-13T05:12:07;18.97;;;10.00;;
37645;SDS011;23489;49.600;6.138;2023-02-13T05:14:33;22.77;;;11.40;;
37645;SDS011;23489;49.600;6.138;2023-02-13T05:16:58;18.87;;;9.50;;
37645;SDS011;23489;49.600;6.138;2023-02-13T05:19:24;18.87;;;9.40;;
37645;SDS011;23489;49.600;6.138;2023-02-13T05:21:50;18.00;;;9.77;;
37645;SDS011;23489;49.600;6.138;2023-02-13T05:24:34;19.13;;;9.40;;
37645;SDS011;23489;49.600;6.138;2023-02-13T05:27:00;17.93;;;9.70;;
37645;SDS011;23489;49.600;6.138;2023-02-13T05:29:25;17.50;;;9.67;;
37645;SDS011;23489;49.600;6.138;2023-02-13T05:31:52;16.97;;;9.07;;
37645;SDS011;23489;49.600;6.138;2023-02-13T05:34:19;19.63;;;9.00;;
37645;SDS011;23489;49.600;6.138;2023-02-13T05:36:46;21.20;;;10.20;;
37645;SDS011;23489;49.600;6.138;2023-02-13T05:39:12;17.80;;;9.03;;
37645;SDS011;23489;49.600;6.138;2023-02-13T05:41:39;23.00;;;10.43;;
37645;SDS011;23489;49.600;6.138;2023-02-13T05:44:05;20.87;;;10.30;;
37645;SDS011;23489;49.600;6.138;2023-02-13T05:46:30;17.83;;;9.93;;
37645;SDS011;23489;49.600;6.138;2023-02-13T05:48:56;23.50;;;10.53;;
37645;SDS011;23489;49.600;6.138;2023-02-13T05:51:22;21.60;;;10.90;;
37645;SDS011;23489;49.600;6.138;2023-02-13T05:53:47;19.67;;;9.93;;
37645;SDS011;23489;49.600;6.138;2023-02-13T05:56:13;21.47;;;10.47;;
37645;SDS011;23489;49.600;6.138;2023-02-13T05:58:39;20.13;;;10.33;;
37645;SDS011;23489;49.600;6.138;2023-02-13T06:01:04;19.13;;;10.07;;
37645;SDS011;23489;49.600;6.138;2023-02-13T06:03:30;20.63;;;10.40;;
37645;SDS011;23489;49.600;6.138;2023-02-13T06:05:57;21.93;;;10.03;;
37645;SDS011;23489;49.600;6.138;2023-02-13T06:08:23;18.33;;;10.57;;
37645;SDS011;23489;49.600;6.138;2023-02-13T06:10:50;19.73;;;10.80;;
37645;SDS011;23489;49.600;6.138;2023-02-13T06:13:16;19.60;;;10.17;;
37645;SDS011;23489;49.600;6.138;2023-02-13T06:15:42;19.97;;;10.63;;
37645;SDS011;23489;49.600;6.138;2023-02-13T06:18:08;19.37;;;10.27;;
37645;SDS011;23489;49.600;6.138;2023-02-13T06:20:33;19.73;;;9.83;;
37645;SDS011;23489;49.600;6.138;2023-02-13T06:22:59;19.57;;;11.03;;
37645;SDS011;23489;49.600;6.138;2023-02-13T06:25:25;20.53;;;10.70;;
37645;SDS011;23489;49.600;6.138;2023-02-13T06:27:51;24.17;;;11.83;;
37645;SDS011;23489;49.600;6.138;2023-02-13T06:30:17;20.67;;;11.20;;
37645;SDS011;23489;49.600;6.138;2023-02-13T06:32:45;21.60;;;11.47;;
37645;SDS011;23489;49.600;6.138;2023-02-13T06:35:11;20.70;;;11.23;;
37645;SDS011;23489;49.600;6.138;2023-02-13T06:37:38;29.70;;;11.90;;
37645;SDS011;23489;49.600;6.138;2023-02-13T06:40:04;25.67;;;12.50;;
37645;SDS011;23489;49.600;6.138;2023-02-13T06:42:31;24.57;;;12.37;;
37645;SDS011;23489;49.600;6.138;2023-02-13T06:44:57;26.00;;;12.13;;
37645;SDS011;23489;49.600;6.138;2023-02-13T06:47:22;23.33;;;11.80;;
37645;SDS011;23489;49.600;6.138;2023-02-13T06:49:48;22.60;;;12.23;;
37645;SDS011;23489;49.600;6.138;2023-02-13T06:52:13;22.37;;;11.83;;
37645;SDS011;23489;49.600;6.138;2023-02-13T06:54:39;23.50;;;11.33;;
37645;SDS011;23489;49.600;6.138;2023-02-13T06:57:05;22.60;;;11.73;;
37645;SDS011;23489;49.600;6.138;2023-02-13T06:59:30;18.33;;;11.07;;
37645;SDS011;23489;49.600;6.138;2023-02-13T07:01:56;19.17;;;9.70;;
37645;SDS011;23489;49.600;6.138;2023-02-13T07:04:21;18.57;;;11.10;;
37645;SDS011;23489;49.600;6.138;2023-02-13T07:06:47;22.33;;;11.73;;
37645;SDS011;23489;49.600;6.138;2023-02-13T07:09:13;20.90;;;10.53;;
37645;SDS011;23489;49.600;6.138;2023-02-13T07:11:38;25.73;;;12.57;;
37645;SDS011;23489;49.600;6.138;2023-02-13T07:14:07;23.87;;;12.07;;
37645;SDS011;23489;49.600;6.138;2023-02-13T07:16:33;21.93;;;11.37;;
37645;SDS011;23489;49.600;6.138;2023-02-13T07:18:59;21.67;;;11.73;;
37645;SDS011;23489;49.600;6.138;2023-02-13T07:21:25;24.33;;;11.97;;
37645;SDS011;23489;49.600;6.138;2023-02-13T07:23:50;23.70;;;12.60;;
37645;SDS011;23489;49.600;6.138;2023-02-13T07:26:16;21.33;;;12.27;;
37645;SDS011;23489;49.600;6.138;2023-02-13T07:28:42;23.40;;;11.20;;
37645;SDS011;23489;49.600;6.138;2023-02-13T07:31:08;27.47;;;14.43;;
37645;SDS011;23489;49.600;6.138;2023-02-13T07:33:35;21.97;;;12.03;;
37645;SDS011;23489;49.600;6.138;2023-02-13T07:36:01;28.93;;;14.13;;
37645;SDS011;23489;49.600;6.138;2023-02-13T07:38:28;19.17;;;11.33;;
37645;SDS011;23489;49.600;6.138;2023-02-13T07:40:57;26.77;;;12.77;;
37645;SDS011;23489;49.600;6.138;2023-02-13T07:43:23;26.50;;;11.93;;
37645;SDS011;23489;49.600;6.138;2023-02-13T07:45:49;30.43;;;14.40;;
37645;SDS011;23489;49.600;6.138;2023-02-13T07:48:19;22.00;;;12.80;;
37645;SDS011;23489;49.600;6.138;2023-02-13T07:50:46;26.33;;;12.80;;
37645;SDS011;23489;49.600;6.138;2023-02-13T07:53:12;24.93;;;13.20;;
37645;SDS011;23489;49.600;6.138;2023-02-13T07:55:37;22.47;;;12.70;;
37645;SDS011;23489;49.600;6.138;2023-02-13T07:58:03;24.50;;;12.07;;
37645;SDS011;23489;49.600;6.138;2023-02-13T08:00:29;22.83;;;12.07;;
37645;SDS011;23489;49.600;6.138;2023-02-13T08:02:57;23.50;;;11.50;;
37645;SDS011;23489;49.600;6.138;2023-02-13T08:05:24;23.55;;;11.90;;
37645;SDS011;23489;49.600;6.138;2023-02-13T08:07:49;24.33;;;12.47;;
37645;SDS011;23489;49.600;6.138;2023-02-13T08:10:16;24.80;;;12.30;;
37645;SDS011;23489;49.600;6.138;2023-02-13T08:13:01;17.87;;;9.33;;
37645;SDS011;23489;49.600;6.138;2023-02-13T08:15:27;27.13;;;13.03;;
37645;SDS011;23489;49.600;6.138;2023-02-13T08:17:52;33.05;;;13.23;;
37645;SDS011;23489;49.600;6.138;2023-02-13T08:20:18;31.27;;;14.87;;
37645;SDS011;23489;49.600;6.138;2023-02-13T08:22:44;30.02;;;14.38;;
37645;SDS011;23489;49.600;6.138;2023-02-13T08:25:09;29.23;;;13.20;;
37645;SDS011;23489;49.600;6.138;2023-02-13T08:27:35;22.52;;;12.98;;
37645;SDS011;23489;49.600;6.138;2023-02-13T08:30:01;27.77;;;13.88;;
37645;SDS011;23489;49.600;6.138;2023-02-13T08:32:27;23.50;;;13.20;;
37645;SDS011;23489;49.600;6.138;2023-02-13T08:34:53;20.95;;;11.40;;
37645;SDS011;23489;49.600;6.138;2023-02-13T08:37:19;20.75;;;11.38;;
37645;SDS011;23489;49.600;6.138;2023-02-13T08:39:45;15.55;;;10.25;;
37645;SDS011;23489;49.600;6.138;2023-02-13T08:42:10;15.35;;;10.55;;
37645;SDS011;23489;49.600;6.138;2023-02-13T08:47:05;14.93;;;10.93;;
37645;SDS011;23489;49.600;6.138;2023-02-13T08:49:31;14.20;;;9.30;;
37645;SDS011;23489;49.600;6.138;2023-02-13T08:51:58;10.75;;;8.70;;
37645;SDS011;23489;49.600;6.138;2023-02-13T08:54:25;11.25;;;8.35;;
37645;SDS011;23489;49.600;6.138;2023-02-13T08:56:51;10.45;;;7.85;;
37645;SDS011;23489;49.600;6.138;2023-02-13T08:59:18;8.40;;;7.50;;
37645;SDS011;23489;49.600;6.138;2023-02-13T09:01:43;10.75;;;7.93;;
37645;SDS011;23489;49.600;6.138;2023-02-13T09:04:09;9.60;;;7.30;;
37645;SDS011;23489;49.600;6.138;2023-02-13T09:06:35;9.52;;;7.35;;
37645;SDS011;23489;49.600;6.138;2023-02-13T09:09:01;8.43;;;7.00;;
37645;SDS011;23489;49.600;6.138;2023-02-13T09:11:29;9.60;;;7.70;;
37645;SDS011;23489;49.600;6.138;2023-02-13T09:13:54;10.02;;;7.30;;
37645;SDS011;23489;49.600;6.138;2023-02-13T09:16:20;8.38;;;7.07;;
37645;SDS011;23489;49.600;6.138;2023-02-13T09:18:46;9.50;;;7.60;;
37645;SDS011;23489;49.600;6.138;2023-02-13T09:21:13;11.90;;;8.20;;
37645;SDS011;23489;49.600;6.138;2023-02-13T09:23:40;9.32;;;7.30;;
37645;SDS011;23489;49.600;6.138;2023-02-13T09:26:07;9.00;;;7.45;;
37645;SDS011;23489;49.600;6.138;2023-02-13T09:28:35;8.43;;;7.18;;
37645;SDS011;23489;49.600;6.138;2023-02-13T09:31:04;9.30;;;7.43;;
37645;SDS011;23489;49.600;6.138;2023-02-13T09:33:31;8.65;;;7.68;;
37645;SDS011;23489;49.600;6.138;2023-02-13T09:35:57;9.13;;;6.75;;
37645;SDS011;23489;49.600;6.138;2023-02-13T09:38:23;7.30;;;6.45;;
37645;SDS011;23489;49.600;6.138;2023-02-13T09:40:52;8.93;;;7.45;;
37645;SDS011;23489;49.600;6.138;2023-02-13T09:43:27;9.80;;;7.70;;
37645;SDS011;23489;49.600;6.138;2023-02-13T09:45:59;9.43;;;7.85;;
37645;SDS011;23489;49.600;6.138;2023-02-13T09:48:32;9.40;;;7.43;;
37645;SDS011;23489;49.600;6.138;2023-02-13T09:51:00;9.18;;;7.50;;
37645;SDS011;23489;49.600;6.138;2023-02-13T09:53:27;9.20;;;7.13;;
37645;SDS011;23489;49.600;6.138;2023-02-13T09:56:03;9.40;;;7.40;;
37645;SDS011;23489;49.600;6.138;2023-02-13T09:58:39;8.82;;;7.00;;
37645;SDS011;23489;49.600;6.138;2023-02-13T10:01:15;9.30;;;7.22;;
37645;SDS011;23489;49.600;6.138;2023-02-13T10:07:06;8.98;;;7.00;;
37645;SDS011;23489;49.600;6.138;2023-02-13T10:09:41;10.55;;;7.35;;
37645;SDS011;23489;49.600;6.138;2023-02-13T10:17:58;9.43;;;7.50;;
37645;SDS011;23489;49.600;6.138;2023-02-13T10:20:33;9.02;;;7.00;;
37645;SDS011;23489;49.600;6.138;2023-02-13T10:23:26;11.57;;;9.02;;
37645;SDS011;23489;49.600;6.138;2023-02-13T10:31:43;9.75;;;7.47;;
37645;SDS011;23489;49.600;6.138;2023-02-13T10:34:16;9.52;;;7.28;;
37645;SDS011;23489;49.600;6.138;2023-02-13T10:36:45;9.68;;;7.35;;
37645;SDS011;23489;49.600;6.138;2023-02-13T10:44:40;10.43;;;7.00;;
37645;SDS011;23489;49.600;6.138;2023-02-13T10:47:38;9.98;;;7.63;;
37645;SDS011;23489;49.600;6.138;2023-02-13T10:56:05;10.93;;;7.90;;
37645;SDS011;23489;49.600;6.138;2023-02-13T11:01:56;15.32;;;8.77;;
37645;SDS011;23489;49.600;6.138;2023-02-13T11:04:34;11.93;;;8.25;;
37645;SDS011;23489;49.600;6.138;2023-02-13T11:07:00;14.23;;;8.52;;
37645;SDS011;23489;49.600;6.138;2023-02-13T11:09:27;13.52;;;8.45;;
37645;SDS011;23489;49.600;6.138;2023-02-13T11:11:57;14.23;;;8.13;;
37645;SDS011;23489;49.600;6.138;2023-02-13T11:14:57;13.30;;;8.60;;
37645;SDS011;23489;49.600;6.138;2023-02-13T11:17:24;14.13;;;8.50;;
37645;SDS011;23489;49.600;6.138;2023-02-13T11:19:54;15.23;;;8.25;;
37645;SDS011;23489;49.600;6.138;2023-02-13T11:22:34;13.80;;;8.07;;
37645;SDS011;23489;49.600;6.138;2023-02-13T11:25:19;13.07;;;7.97;;
37645;SDS011;23489;49.600;6.138;2023-02-13T11:27:48;13.55;;;8.30;;
37645;SDS011;23489;49.600;6.138;2023-02-13T11:33:00;13.30;;;8.73;;
37645;SDS011;23489;49.600;6.138;2023-02-13T11:35:31;13.88;;;8.23;;
37645;SDS011;23489;49.600;6.138;2023-02-13T11:40:40;14.27;;;8.18;;
37645;SDS011;23489;49.600;6.138;2023-02-13T11:43:26;12.55;;;8.40;;
37645;SDS011;23489;49.600;6.138;2023-02-13T11:46:11;11.85;;;7.60;;
37645;SDS011;23489;49.600;6.138;2023-02-13T11:48:41;14.18;;;8.18;;
37645;SDS011;23489;49.600;6.138;2023-02-13T11:51:08;14.60;;;8.75;;
37645;SDS011;23489;49.600;6.138;2023-02-13T11:53:37;14.55;;;8.45;;
37645;SDS011;23489;49.600;6.138;2023-02-13T11:58:31;12.75;;;8.48;;
37645;SDS011;23489;49.600;6.138;2023-02-13T12:03:42;12.82;;;7.97;;
37645;SDS011;23489;49.600;6.138;2023-02-13T12:08:34;12.98;;;8.02;;
37645;SDS011;23489;49.600;6.138;2023-02-13T12:11:03;14.70;;;7.30;;
37645;SDS011;23489;49.600;6.138;2023-02-13T12:13:51;11.00;;;7.25;;
37645;SDS011;23489;49.600;6.138;2023-02-13T12:16:23;12.43;;;7.78;;
37645;SDS011;23489;49.600;6.138;2023-02-13T12:18:55;11.07;;;6.60;;
37645;SDS011;23489;49.600;6.138;2023-02-13T12:21:43;10.35;;;6.80;;
37645;SDS011;23489;49.600;6.138;2023-02-13T12:24:40;12.05;;;7.05;;
37645;SDS011;23489;49.600;6.138;2023-02-13T12:32:54;10.23;;;6.30;;
37645;SDS011;23489;49.600;6.138;2023-02-13T12:35:46;11.10;;;6.93;;
37645;SDS011;23489;49.600;6.138;2023-02-13T12:41:17;11.25;;;6.35;;
37645;SDS011;23489;49.600;6.138;2023-02-13T12:49:43;10.60;;;7.45;;
37645;SDS011;23489;49.600;6.138;2023-02-13T13:02:55;9.20;;;5.57;;
37645;SDS011;23489;49.600;6.138;2023-02-13T13:05:44;9.57;;;6.47;;
37645;SDS011;23489;49.600;6.138;2023-02-13T13:13:56;10.48;;;6.10;;
37645;SDS011;23489;49.600;6.138;2023-02-13T13:19:26;11.10;;;6.82;;
37645;SDS011;23489;49.600;6.138;2023-02-13T13:22:04;11.52;;;6.97;;
37645;SDS011;23489;49.600;6.138;2023-02-13T13:27:25;9.85;;;6.45;;
37645;SDS011;23489;49.600;6.138;2023-02-13T13:30:05;10.40;;;6.65;;
37645;SDS011;23489;49.600;6.138;2023-02-13T13:32:40;9.20;;;6.28;;
37645;SDS011;23489;49.600;6.138;2023-02-13T13:35:12;9.02;;;6.10;;
37645;SDS011;23489;49.600;6.138;2023-02-13T13:37:45;12.13;;;7.00;;
37645;SDS011;23489;49.600;6.138;2023-02-13T13:40:49;9.43;;;6.30;;
37645;SDS011;23489;49.600;6.138;2023-02-13T13:51:38;10.15;;;6.68;;
37645;SDS011;23489;49.600;6.138;2023-02-13T13:57:02;8.23;;;6.10;;
37645;SDS011;23489;49.600;6.138;2023-02-13T14:07:47;9.57;;;6.70;;
37645;SDS011;23489;49.600;6.138;2023-02-13T14:23:21;10.13;;;6.25;;
37645;SDS011;23489;49.600;6.138;2023-02-13T14:25:48;11.02;;;6.88;;
37645;SDS011;23489;49.600;6.138;2023-02-13T14:28:19;11.82;;;7.07;;
37645;SDS011;23489;49.600;6.138;2023-02-13T14:30:48;10.68;;;6.60;;
37645;SDS011;23489;49.600;6.138;2023-02-13T14:33:23;10.82;;;6.35;;
37645;SDS011;23489;49.600;6.138;2023-02-13T14:36:06;8.60;;;6.25;;
37645;SDS011;23489;49.600;6.138;2023-02-13T14:38:42;10.30;;;6.60;;
37645;SDS011;23489;49.600;6.138;2023-02-13T14:41:39;8.43;;;5.88;;
37645;SDS011;23489;49.600;6.138;2023-02-13T14:47:21;11.07;;;6.10;;
37645;SDS011;23489;49.600;6.138;2023-02-13T14:52:35;8.55;;;5.93;;
37645;SDS011;23489;49.600;6.138;2023-02-13T14:55:16;11.43;;;5.85;;
37645;SDS011;23489;49.600;6.138;2023-02-13T14:57:52;10.07;;;5.97;;
37645;SDS011;23489;49.600;6.138;2023-02-13T15:00:27;11.25;;;6.03;;
37645;SDS011;23489;49.600;6.138;2023-02-13T15:03:19;8.60;;;5.78;;
37645;SDS011;23489;49.600;6.138;2023-02-13T15:06:02;8.23;;;6.07;;
37645;SDS011;23489;49.600;6.138;2023-02-13T15:08:33;11.70;;;5.72;;
37645;SDS011;23489;49.600;6.138;2023-02-13T15:11:02;8.05;;;5.53;;
37645;SDS011;23489;49.600;6.138;2023-02-13T15:13:32;10.80;;;6.15;;
37645;SDS011;23489;49.600;6.138;2023-02-13T15:16:04;9.65;;;6.47;;
37645;SDS011;23489;49.600;6.138;2023-02-13T15:18:54;7.40;;;5.32;;
37645;SDS011;23489;49.600;6.138;2023-02-13T15:21:23;11.70;;;5.95;;
37645;SDS011;23489;49.600;6.138;2023-02-13T15:23:53;8.05;;;5.65;;
37645;SDS011;23489;49.600;6.138;2023-02-13T15:26:22;9.43;;;5.78;;
37645;SDS011;23489;49.600;6.138;2023-02-13T15:28:57;8.88;;;5.95;;
37645;SDS011;23489;49.600;6.138;2023-02-13T15:31:25;9.80;;;5.95;;
37645;SDS011;23489;49.600;6.138;2023-02-13T15:33:57;11.73;;;6.18;;
37645;SDS011;23489;49.600;6.138;2023-02-13T15:36:24;8.85;;;5.22;;
37645;SDS011;23489;49.600;6.138;2023-02-13T15:38:58;9.48;;;6.10;;
37645;SDS011;23489;49.600;6.138;2023-02-13T15:41:26;12.48;;;6.43;;
37645;SDS011;23489;49.600;6.138;2023-02-13T15:44:06;9.10;;;6.13;;
37645;SDS011;23489;49.600;6.138;2023-02-13T15:46:42;10.65;;;6.05;;
37645;SDS011;23489;49.600;6.138;2023-02-13T15:49:15;8.95;;;5.93;;
37645;SDS011;23489;49.600;6.138;2023-02-13T15:51:43;8.80;;;5.53;;
37645;SDS011;23489;49.600;6.138;2023-02-13T15:54:23;8.07;;;5.28;;
37645;SDS011;23489;49.600;6.138;2023-02-13T15:56:52;8.73;;;5.53;;
37645;SDS011;23489;49.600;6.138;2023-02-13T15:59:21;10.13;;;5.78;;
37645;SDS011;23489;49.600;6.138;2023-02-13T16:01:48;10.00;;;6.07;;
37645;SDS011;23489;49.600;6.138;2023-02-13T16:04:15;9.45;;;6.10;;
37645;SDS011;23489;49.600;6.138;2023-02-13T16:06:43;11.50;;;5.90;;
37645;SDS011;23489;49.600;6.138;2023-02-13T16:09:23;9.27;;;6.10;;
37645;SDS011;23489;49.600;6.138;2023-02-13T16:12:06;9.02;;;5.65;;
37645;SDS011;23489;49.600;6.138;2023-02-13T16:14:46;9.80;;;5.82;;
37645;SDS011;23489;49.600;6.138;2023-02-13T16:17:16;11.27;;;6.03;;
37645;SDS011;23489;49.600;6.138;2023-02-13T16:19:55;10.82;;;6.43;;
37645;SDS011;23489;49.600;6.138;2023-02-13T16:27:58;10.50;;;6.38;;
37645;SDS011;23489;49.600;6.138;2023-02-13T16:30:34;9.77;;;5.80;;
37645;SDS011;23489;49.600;6.138;2023-02-13T16:35:45;9.70;;;6.10;;
37645;SDS011;23489;49.600;6.138;2023-02-13T16:44:02;12.52;;;6.00;;
37645;SDS011;23489;49.600;6.138;2023-02-13T16:46:41;10.43;;;6.60;;
37645;SDS011;23489;49.600;6.138;2023-02-13T16:49:15;10.02;;;6.47;;
37645;SDS011;23489;49.600;6.138;2023-02-13T16:51:59;9.55;;;5.82;;
37645;SDS011;23489;49.600;6.138;2023-02-13T17:04:37;12.55;;;6.72;;
37645;SDS011;23489;49.600;6.138;2023-02-13T17:07:22;16.48;;;6.85;;
37645;SDS011;23489;49.600;6.138;2023-02-13T17:09:52;13.10;;;6.88;;
37645;SDS011;23489;49.600;6.138;2023-02-13T17:12:23;13.52;;;7.57;;
37645;SDS011;23489;49.600;6.138;2023-02-13T17:14:50;10.48;;;6.40;;
37645;SDS011;23489;49.600;6.138;2023-02-13T17:17:18;12.50;;;7.10;;
37645;SDS011;23489;49.600;6.138;2023-02-13T17:19:45;14.43;;;7.38;;
37645;SDS011;23489;49.600;6.138;2023-02-13T17:22:17;12.15;;;7.05;;
37645;SDS011;23489;49.600;6.138;2023-02-13T17:24:50;10.45;;;7.28;;
37645;SDS011;23489;49.600;6.138;2023-02-13T17:27:15;10.77;;;6.55;;
37645;SDS011;23489;49.600;6.138;2023-02-13T17:29:41;13.75;;;6.78;;
37645;SDS011;23489;49.600;6.138;2023-02-13T17:32:07;14.05;;;6.60;;
37645;SDS011;23489;49.600;6.138;2023-02-13T17:34:39;13.20;;;7.18;;
37645;SDS011;23489;49.600;6.138;2023-02-13T17:37:09;11.27;;;6.47;;
37645;SDS011;23489;49.600;6.138;2023-02-13T17:39:43;12.27;;;6.13;;
37645;SDS011;23489;49.600;6.138;2023-02-13T17:42:12;12.52;;;6.55;;
37645;SDS011;23489;49.600;6.138;2023-02-13T17:44:40;13.68;;;6.72;;
37645;SDS011;23489;49.600;6.138;2023-02-13T17:47:06;13.35;;;6.57;;
37645;SDS011;23489;49.600;6.138;2023-02-13T17:49:32;9.05;;;5.97;;
37645;SDS011;23489;49.600;6.138;2023-02-13T17:51:57;11.82;;;6.20;;
37645;SDS011;23489;49.600;6.138;2023-02-13T17:54:23;9.70;;;6.03;;
37645;SDS011;23489;49.600;6.138;2023-02-13T17:56:49;13.27;;;6.53;;
37645;SDS011;23489;49.600;6.138;2023-02-13T17:59:15;10.48;;;5.95;;
37645;SDS011;23489;49.600;6.138;2023-02-13T18:01:40;13.90;;;6.20;;